sensor_id;sensor_type;location;lat;lon;timestamp;pressure;altitude;pressure_sealevel;temperature;humidity
25947;BME280;13745;51.470;9.894;2023-02-28T00:01:45;100700.31;;;1.10;59.03
25947;BME280;13745;51.470;9.894;2023-02-28T00:04:29;100698.63;;;1.11;58.96
25947;BME280;13745;51.470;9.894;2023-02-28T00:07:15;100698.69;;;1.12;58.87
25947;BME280;13745;51.470;9.894;2023-02-28T00:09:59;100698.69;;;1.12;59.40
25947;BME280;13745;51.470;9.894;2023-02-28T00:12:45;100696.25;;;1.16;58.75
25947;BME280;13745;51.470;9.894;2023-02-28T00:15:32;100707.44;;;1.18;59.27
25947;BME280;13745;51.470;9.894;2023-02-28T00:18:17;100700.72;;;1.20;59.46
25947;BME280;13745;51.470;9.894;2023-02-28T00:21:02;100705.75;;;1.18;59.01
25947;BME280;13745;51.470;9.894;2023-02-28T00:23:48;100696.63;;;1.23;58.77
25947;BME280;13745;51.470;9.894;2023-02-28T00:26:33;100704.50;;;1.28;59.09
25947;BME280;13745;51.470;9.894;2023-02-28T00:29:18;100705.50;;;1.31;58.39
25947;BME280;13745;51.470;9.894;2023-02-28T00:32:05;100698.06;;;1.36;58.71
25947;BME280;13745;51.470;9.894;2023-02-28T00:34:51;100699.06;;;1.39;58.98
25947;BME280;13745;51.470;9.894;2023-02-28T00:37:36;100709.38;;;1.41;59.33
25947;BME280;13745;51.470;9.894;2023-02-28T00:40:23;100702.63;;;1.43;58.68
25947;BME280;13745;51.470;9.894;2023-02-28T00:43:07;100695.97;;;1.47;58.57
25947;BME280;13745;51.470;9.894;2023-02-28T00:45:53;100705.38;;;1.48;59.24
25947;BME280;13745;51.470;9.894;2023-02-28T00:48:39;100702.81;;;1.48;59.38
25947;BME280;13745;51.470;9.894;2023-02-28T00:51:24;100697.81;;;1.49;58.52
25947;BME280;13745;51.470;9.894;2023-02-28T00:54:09;100700.41;;;1.51;58.98
25947;BME280;13745;51.470;9.894;2023-02-28T00:56:54;100708.03;;;1.49;59.27
25947;BME280;13745;51.470;9.894;2023-02-28T00:59:39;100710.41;;;1.46;58.55
25947;BME280;13745;51.470;9.894;2023-02-28T01:02:25;100712.97;;;1.46;58.46
25947;BME280;13745;51.470;9.894;2023-02-28T01:05:12;100703.50;;;1.44;58.33
25947;BME280;13745;51.470;9.894;2023-02-28T01:07:57;100698.47;;;1.45;59.29
25947;BME280;13745;51.470;9.894;2023-02-28T01:10:42;100702.91;;;1.49;59.57
25947;BME280;13745;51.470;9.894;2023-02-28T01:13:27;100694.44;;;1.50;58.28
25947;BME280;13745;51.470;9.894;2023-02-28T01:16:13;100691.94;;;1.52;59.15
25947;BME280;13745;51.470;9.894;2023-02-28T01:18:58;100703.84;;;1.51;59.12
25947;BME280;13745;51.470;9.894;2023-02-28T01:21:44;100694.34;;;1.49;58.58
25947;BME280;13745;51.470;9.894;2023-02-28T01:24:31;100695.03;;;1.45;58.12
25947;BME280;13745;51.470;9.894;2023-02-28T01:27:16;100695.84;;;1.44;57.75
25947;BME280;13745;51.470;9.894;2023-02-28T01:30:01;100693.28;;;1.44;58.69
25947;BME280;13745;51.470;9.894;2023-02-28T01:32:46;100686.63;;;1.47;59.13
25947;BME280;13745;51.470;9.894;2023-02-28T01:35:32;100683.34;;;1.50;58.48
25947;BME280;13745;51.470;9.894;2023-02-28T01:38:19;100679.19;;;1.52;58.23
25947;BME280;13745;51.470;9.894;2023-02-28T01:41:04;100678.25;;;1.50;58.34
25947;BME280;13745;51.470;9.894;2023-02-28T01:43:59;100679.94;;;1.49;58.28
25947;BME280;13745;51.470;9.894;2023-02-28T01:46:47;100686.78;;;1.50;58.49
25947;BME280;13745;51.470;9.894;2023-02-28T01:49:32;100679.94;;;1.49;58.66
25947;BME280;13745;51.470;9.894;2023-02-28T01:52:18;100676.56;;;1.50;57.97
25947;BME280;13745;51.470;9.894;2023-02-28T01:55:08;100674.88;;;1.51;58.16
25947;BME280;13745;51.470;9.894;2023-02-28T01:57:57;100663.91;;;1.53;58.06
25947;BME280;13745;51.470;9.894;2023-02-28T02:00:45;100668.91;;;1.50;58.67
25947;BME280;13745;51.470;9.894;2023-02-28T02:03:31;100678.44;;;1.54;58.90
25947;BME280;13745;51.470;9.894;2023-02-28T02:06:16;100661.28;;;1.52;58.53
25947;BME280;13745;51.470;9.894;2023-02-28T02:09:02;100663.84;;;1.52;58.76
25947;BME280;13745;51.470;9.894;2023-02-28T02:11:48;100666.34;;;1.50;58.40
25947;BME280;13745;51.470;9.894;2023-02-28T02:14:47;100666.19;;;1.47;58.28
25947;BME280;13745;51.470;9.894;2023-02-28T02:17:39;100661.06;;;1.47;58.63
25947;BME280;13745;51.470;9.894;2023-02-28T02:20:42;100651.59;;;1.45;58.57
25947;BME280;13745;51.470;9.894;2023-02-28T02:27:15;100646.72;;;1.49;58.52
25947;BME280;13745;51.470;9.894;2023-02-28T02:30:20;100649.19;;;1.48;59.09
25947;BME280;13745;51.470;9.894;2023-02-28T02:33:44;100652.53;;;1.47;59.30
25947;BME280;13745;51.470;9.894;2023-02-28T02:36:38;100652.69;;;1.50;58.31
25947;BME280;13745;51.470;9.894;2023-02-28T02:39:30;100661.28;;;1.52;58.80
25947;BME280;13745;51.470;9.894;2023-02-28T02:42:24;100662.16;;;1.52;59.52
25947;BME280;13745;51.470;9.894;2023-02-28T02:45:15;100654.50;;;1.52;59.52
25947;BME280;13745;51.470;9.894;2023-02-28T02:48:05;100655.44;;;1.54;58.77
25947;BME280;13745;51.470;9.894;2023-02-28T02:50:55;100653.03;;;1.57;59.06
25947;BME280;13745;51.470;9.894;2023-02-28T02:53:46;100661.34;;;1.53;58.79
25947;BME280;13745;51.470;9.894;2023-02-28T02:56:34;100658.53;;;1.47;58.79
25947;BME280;13745;51.470;9.894;2023-02-28T02:59:22;100660.28;;;1.48;59.02
25947;BME280;13745;51.470;9.894;2023-02-28T03:02:11;100658.75;;;1.52;59.78
25947;BME280;13745;51.470;9.894;2023-02-28T03:04:59;100659.66;;;1.54;58.58
25947;BME280;13745;51.470;9.894;2023-02-28T03:07:46;100659.63;;;1.52;59.15
25947;BME280;13745;51.470;9.894;2023-02-28T03:10:36;100657.81;;;1.50;58.79
25947;BME280;13745;51.470;9.894;2023-02-28T03:13:54;100669.72;;;1.49;58.48
25947;BME280;13745;51.470;9.894;2023-02-28T03:16:55;100663.97;;;1.55;59.36
25947;BME280;13745;51.470;9.894;2023-02-28T03:19:54;100651.41;;;1.59;59.14
25947;BME280;13745;51.470;9.894;2023-02-28T03:22:49;100656.59;;;1.61;58.66
25947;BME280;13745;51.470;9.894;2023-02-28T03:25:46;100659.19;;;1.62;59.16
25947;BME280;13745;51.470;9.894;2023-02-28T03:28:40;100657.56;;;1.64;59.36
25947;BME280;13745;51.470;9.894;2023-02-28T03:31:32;100664.53;;;1.67;59.93
25947;BME280;13745;51.470;9.894;2023-02-28T03:34:25;100662.69;;;1.64;59.21
25947;BME280;13745;51.470;9.894;2023-02-28T03:37:18;100661.00;;;1.65;59.82
25947;BME280;13745;51.470;9.894;2023-02-28T03:40:07;100661.88;;;1.65;59.77
25947;BME280;13745;51.470;9.894;2023-02-28T03:43:01;100667.06;;;1.67;59.37
25947;BME280;13745;51.470;9.894;2023-02-28T03:45:48;100671.38;;;1.68;60.09
25947;BME280;13745;51.470;9.894;2023-02-28T03:48:39;100667.94;;;1.67;59.59
25947;BME280;13745;51.470;9.894;2023-02-28T03:51:28;100673.72;;;1.63;59.87
25947;BME280;13745;51.470;9.894;2023-02-28T03:54:18;100666.03;;;1.63;59.76
25947;BME280;13745;51.470;9.894;2023-02-28T03:57:10;100669.53;;;1.65;59.44
25947;BME280;13745;51.470;9.894;2023-02-28T04:00:02;100668.66;;;1.65;59.46
25947;BME280;13745;51.470;9.894;2023-02-28T04:02:56;100667.94;;;1.67;59.50
25947;BME280;13745;51.470;9.894;2023-02-28T04:05:50;100671.31;;;1.66;60.72
25947;BME280;13745;51.470;9.894;2023-02-28T04:08:36;100673.94;;;1.68;59.81
25947;BME280;13745;51.470;9.894;2023-02-28T04:11:24;100665.38;;;1.67;59.66
25947;BME280;13745;51.470;9.894;2023-02-28T04:14:12;100665.50;;;1.71;60.34
25947;BME280;13745;51.470;9.894;2023-02-28T04:16:58;100669.81;;;1.72;60.56
25947;BME280;13745;51.470;9.894;2023-02-28T04:19:43;100666.59;;;1.76;60.10
25947;BME280;13745;51.470;9.894;2023-02-28T04:22:29;100670.06;;;1.78;59.92
25947;BME280;13745;51.470;9.894;2023-02-28T04:25:14;100676.88;;;1.77;60.98
25947;BME280;13745;51.470;9.894;2023-02-28T04:27:58;100675.06;;;1.75;60.05
25947;BME280;13745;51.470;9.894;2023-02-28T04:30:43;100672.50;;;1.75;60.64
25947;BME280;13745;51.470;9.894;2023-02-28T04:33:31;100671.63;;;1.74;60.55
25947;BME280;13745;51.470;9.894;2023-02-28T04:36:17;100681.94;;;1.76;60.97
25947;BME280;13745;51.470;9.894;2023-02-28T04:39:03;100676.00;;;1.77;61.09
25947;BME280;13745;51.470;9.894;2023-02-28T04:41:49;100672.50;;;1.75;60.36
25947;BME280;13745;51.470;9.894;2023-02-28T04:44:35;100677.75;;;1.78;61.32
25947;BME280;13745;51.470;9.894;2023-02-28T04:47:20;100670.94;;;1.78;60.68
25947;BME280;13745;51.470;9.894;2023-02-28T04:50:07;100669.31;;;1.80;60.85
25947;BME280;13745;51.470;9.894;2023-02-28T04:52:53;100667.63;;;1.81;60.74
25947;BME280;13745;51.470;9.894;2023-02-28T04:55:38;100677.81;;;1.79;60.74
25947;BME280;13745;51.470;9.894;2023-02-28T04:58:25;100681.94;;;1.76;61.13
25947;BME280;13745;51.470;9.894;2023-02-28T05:01:19;100681.94;;;1.76;61.04
25947;BME280;13745;51.470;9.894;2023-02-28T05:04:05;100680.41;;;1.81;60.53
25947;BME280;13745;51.470;9.894;2023-02-28T05:06:51;100672.75;;;1.81;60.55
25947;BME280;13745;51.470;9.894;2023-02-28T05:09:37;100678.00;;;1.84;60.94
25947;BME280;13745;51.470;9.894;2023-02-28T05:12:22;100683.06;;;1.82;60.64
25947;BME280;13745;51.470;9.894;2023-02-28T05:15:09;100683.94;;;1.83;61.20
25947;BME280;13745;51.470;9.894;2023-02-28T05:17:57;100688.28;;;1.85;60.84
25947;BME280;13745;51.470;9.894;2023-02-28T05:20:42;100681.44;;;1.84;61.17
25947;BME280;13745;51.470;9.894;2023-02-28T05:23:29;100678.06;;;1.85;61.37
25947;BME280;13745;51.470;9.894;2023-02-28T05:26:14;100678.06;;;1.85;61.20
25947;BME280;13745;51.470;9.894;2023-02-28T05:28:59;100677.25;;;1.86;61.07
25947;BME280;13745;51.470;9.894;2023-02-28T05:31:45;100683.25;;;1.87;61.91
25947;BME280;13745;51.470;9.894;2023-02-28T05:34:30;100678.06;;;1.85;61.13
25947;BME280;13745;51.470;9.894;2023-02-28T05:37:15;100682.50;;;1.89;61.82
25947;BME280;13745;51.470;9.894;2023-02-28T05:40:02;100686.81;;;1.90;61.51
25947;BME280;13745;51.470;9.894;2023-02-28T05:42:50;100686.88;;;1.92;61.43
25947;BME280;13745;51.470;9.894;2023-02-28T05:45:35;100692.06;;;1.93;61.28
25947;BME280;13745;51.470;9.894;2023-02-28T05:48:20;100692.94;;;1.94;61.46
25947;BME280;13745;51.470;9.894;2023-02-28T05:51:06;100687.81;;;1.94;61.77
25947;BME280;13745;51.470;9.894;2023-02-28T05:53:51;100698.91;;;1.94;61.71
25947;BME280;13745;51.470;9.894;2023-02-28T05:56:37;100691.31;;;1.96;62.14
25947;BME280;13745;51.470;9.894;2023-02-28T05:59:24;100693.09;;;1.98;61.86
25947;BME280;13745;51.470;9.894;2023-02-28T06:02:11;100689.81;;;2.01;61.42
25947;BME280;13745;51.470;9.894;2023-02-28T06:04:56;100691.50;;;2.01;62.21
25947;BME280;13745;51.470;9.894;2023-02-28T06:07:42;100689.88;;;2.03;62.19
25947;BME280;13745;51.470;9.894;2023-02-28T06:10:27;100703.53;;;2.03;61.40
25947;BME280;13745;51.470;9.894;2023-02-28T06:13:14;100711.28;;;2.05;61.83
25947;BME280;13745;51.470;9.894;2023-02-28T06:16:00;100706.97;;;2.04;61.52
25947;BME280;13745;51.470;9.894;2023-02-28T06:18:45;100708.72;;;2.05;61.29
25947;BME280;13745;51.470;9.894;2023-02-28T06:21:31;100715.72;;;2.09;62.10
25947;BME280;13745;51.470;9.894;2023-02-28T06:24:16;100716.59;;;2.09;61.89
25947;BME280;13745;51.470;9.894;2023-02-28T06:27:01;100717.53;;;2.11;61.66
25947;BME280;13745;51.470;9.894;2023-02-28T06:29:53;100709.19;;;2.15;61.69
25947;BME280;13745;51.470;9.894;2023-02-28T06:32:39;100705.16;;;2.22;61.12
25947;BME280;13745;51.470;9.894;2023-02-28T06:35:24;100705.38;;;2.27;62.01
25947;BME280;13745;51.470;9.894;2023-02-28T06:38:09;100715.78;;;2.31;61.05
25947;BME280;13745;51.470;9.894;2023-02-28T06:40:55;100715.13;;;2.35;61.45
25947;BME280;13745;51.470;9.894;2023-02-28T06:43:41;100715.22;;;2.38;61.37
25947;BME280;13745;51.470;9.894;2023-02-28T06:46:28;100721.34;;;2.42;61.53
25947;BME280;13745;51.470;9.894;2023-02-28T06:49:14;100725.78;;;2.46;61.19
25947;BME280;13745;51.470;9.894;2023-02-28T06:51:59;100726.69;;;2.48;61.70
25947;BME280;13745;51.470;9.894;2023-02-28T06:54:45;100732.06;;;2.54;61.62
25947;BME280;13745;51.470;9.894;2023-02-28T06:57:30;100728.84;;;2.58;61.68
25947;BME280;13745;51.470;9.894;2023-02-28T07:00:16;100728.91;;;2.60;61.06
25947;BME280;13745;51.470;9.894;2023-02-28T07:03:02;100729.16;;;2.66;61.72
25947;BME280;13745;51.470;9.894;2023-02-28T07:05:48;100737.16;;;2.73;61.27
25947;BME280;13745;51.470;9.894;2023-02-28T07:08:34;100738.25;;;2.80;61.22
25947;BME280;13745;51.470;9.894;2023-02-28T07:11:20;100732.56;;;2.87;61.40
25947;BME280;13745;51.470;9.894;2023-02-28T07:14:07;100736.22;;;2.94;61.31
25947;BME280;13745;51.470;9.894;2023-02-28T07:16:52;100734.03;;;3.03;61.04
25947;BME280;13745;51.470;9.894;2023-02-28T07:19:39;100734.22;;;3.07;61.35
25947;BME280;13745;51.470;9.894;2023-02-28T07:22:24;100730.28;;;3.16;61.00
25947;BME280;13745;51.470;9.894;2023-02-28T07:25:10;100741.72;;;3.25;61.32
25947;BME280;13745;51.470;9.894;2023-02-28T07:27:55;100740.28;;;3.32;60.90
25947;BME280;13745;51.470;9.894;2023-02-28T07:30:42;100737.94;;;3.38;61.45
25947;BME280;13745;51.470;9.894;2023-02-28T07:33:28;100743.47;;;3.49;61.19
25947;BME280;13745;51.470;9.894;2023-02-28T07:36:16;100745.44;;;3.56;60.64
25947;BME280;13745;51.470;9.894;2023-02-28T07:39:02;100737.31;;;3.67;61.03
25947;BME280;13745;51.470;9.894;2023-02-28T07:41:48;100741.19;;;3.80;60.38
25947;BME280;13745;51.470;9.894;2023-02-28T07:44:33;100739.03;;;3.91;60.04
25947;BME280;13745;51.470;9.894;2023-02-28T07:47:18;100745.34;;;4.01;60.05
25947;BME280;13745;51.470;9.894;2023-02-28T07:50:04;100740.53;;;4.10;60.14
25947;BME280;13745;51.470;9.894;2023-02-28T07:52:50;100748.53;;;4.19;60.00
25947;BME280;13745;51.470;9.894;2023-02-28T07:55:36;100743.72;;;4.28;60.00
25947;BME280;13745;51.470;9.894;2023-02-28T07:58:21;100747.47;;;4.38;60.00
25947;BME280;13745;51.470;9.894;2023-02-28T08:01:07;100746.81;;;4.43;59.90
25947;BME280;13745;51.470;9.894;2023-02-28T08:03:52;100751.31;;;4.50;59.55
25947;BME280;13745;51.470;9.894;2023-02-28T08:06:38;100746.16;;;4.49;59.48
25947;BME280;13745;51.470;9.894;2023-02-28T08:09:25;100745.16;;;4.45;59.30
25947;BME280;13745;51.470;9.894;2023-02-28T08:12:11;100753.81;;;4.47;59.19
25947;BME280;13745;51.470;9.894;2023-02-28T08:14:56;100750.50;;;4.51;59.05
25947;BME280;13745;51.470;9.894;2023-02-28T08:17:41;100747.16;;;4.54;58.90
25947;BME280;13745;51.470;9.894;2023-02-28T08:20:27;100750.97;;;4.65;58.71
25947;BME280;13745;51.470;9.894;2023-02-28T08:23:12;100746.91;;;4.72;58.35
25947;BME280;13745;51.470;9.894;2023-02-28T08:25:59;100741.19;;;4.81;58.22
25947;BME280;13745;51.470;9.894;2023-02-28T08:28:44;100739.16;;;4.97;57.84
25947;BME280;13745;51.470;9.894;2023-02-28T08:31:32;100736.22;;;5.14;57.51
25947;BME280;13745;51.470;9.894;2023-02-28T08:34:19;100740.19;;;5.31;56.87
25947;BME280;13745;51.470;9.894;2023-02-28T08:37:04;100734.94;;;5.56;56.43
25947;BME280;13745;51.470;9.894;2023-02-28T08:39:49;100733.16;;;5.85;56.16
25947;BME280;13745;51.470;9.894;2023-02-28T08:42:36;100729.75;;;6.16;55.78
25947;BME280;13745;51.470;9.894;2023-02-28T08:45:21;100729.69;;;6.48;54.99
25947;BME280;13745;51.470;9.894;2023-02-28T08:48:06;100723.72;;;6.85;54.44
25947;BME280;13745;51.470;9.894;2023-02-28T08:50:55;100716.13;;;7.29;54.39
25947;BME280;13745;51.470;9.894;2023-02-28T08:53:40;100726.81;;;7.89;54.34
25947;BME280;13745;51.470;9.894;2023-02-28T08:56:26;100730.72;;;8.61;54.60
25947;BME280;13745;51.470;9.894;2023-02-28T08:59:13;100730.19;;;9.43;54.55
25947;BME280;13745;51.470;9.894;2023-02-28T09:01:58;100718.22;;;10.25;53.47
25947;BME280;13745;51.470;9.894;2023-02-28T09:04:43;100726.66;;;11.08;52.84
25947;BME280;13745;51.470;9.894;2023-02-28T09:07:29;100722.78;;;11.97;52.20
25947;BME280;13745;51.470;9.894;2023-02-28T09:10:14;100719.38;;;12.88;51.35
25947;BME280;13745;51.470;9.894;2023-02-28T09:12:59;100720.03;;;13.77;50.41
25947;BME280;13745;51.470;9.894;2023-02-28T09:15:45;100715.00;;;14.80;49.20
25947;BME280;13745;51.470;9.894;2023-02-28T09:18:30;100727.72;;;15.16;48.44
25947;BME280;13745;51.470;9.894;2023-02-28T09:21:16;100722.00;;;15.62;47.18
25947;BME280;13745;51.470;9.894;2023-02-28T09:24:02;100716.34;;;16.53;45.59
25947;BME280;13745;51.470;9.894;2023-02-28T09:26:47;100709.97;;;17.63;44.23
25947;BME280;13745;51.470;9.894;2023-02-28T09:29:33;100709.97;;;18.78;42.82
25947;BME280;13745;51.470;9.894;2023-02-28T09:32:20;100710.16;;;19.68;41.09
25947;BME280;13745;51.470;9.894;2023-02-28T09:35:06;100693.38;;;20.83;39.82
25947;BME280;13745;51.470;9.894;2023-02-28T09:37:56;100703.03;;;22.04;38.48
25947;BME280;13745;51.470;9.894;2023-02-28T09:40:48;100701.69;;;23.02;36.67
25947;BME280;13745;51.470;9.894;2023-02-28T09:43:36;100708.78;;;22.99;36.11
25947;BME280;13745;51.470;9.894;2023-02-28T09:46:29;100705.63;;;21.58;36.42
25947;BME280;13745;51.470;9.894;2023-02-28T09:49:20;100710.69;;;20.09;36.43
25947;BME280;13745;51.470;9.894;2023-02-28T09:52:10;100707.06;;;20.13;36.32
25947;BME280;13745;51.470;9.894;2023-02-28T09:55:18;100703.84;;;20.31;35.31
25947;BME280;13745;51.470;9.894;2023-02-28T09:58:03;100704.84;;;19.71;35.84
25947;BME280;13745;51.470;9.894;2023-02-28T10:00:56;100713.63;;;19.39;35.64
25947;BME280;13745;51.470;9.894;2023-02-28T10:03:46;100704.94;;;19.04;35.90
25947;BME280;13745;51.470;9.894;2023-02-28T10:06:41;100712.41;;;18.14;35.91
25947;BME280;13745;51.470;9.894;2023-02-28T10:09:30;100708.75;;;18.20;35.66
25947;BME280;13745;51.470;9.894;2023-02-28T10:12:19;100716.25;;;17.56;35.59
25947;BME280;13745;51.470;9.894;2023-02-28T10:15:05;100715.69;;;16.93;36.45
25947;BME280;13745;51.470;9.894;2023-02-28T10:17:54;100717.94;;;16.62;36.49
25947;BME280;13745;51.470;9.894;2023-02-28T10:20:42;100733.00;;;16.49;36.31
25947;BME280;13745;51.470;9.894;2023-02-28T10:23:34;100717.63;;;15.60;36.87
25947;BME280;13745;51.470;9.894;2023-02-28T10:26:19;100715.00;;;17.29;35.90
25947;BME280;13745;51.470;9.894;2023-02-28T10:29:04;100707.69;;;20.49;33.89
25947;BME280;13745;51.470;9.894;2023-02-28T10:31:49;100712.09;;;22.20;31.66
25947;BME280;13745;51.470;9.894;2023-02-28T10:34:34;100712.44;;;24.51;29.70
25947;BME280;13745;51.470;9.894;2023-02-28T10:37:19;100704.63;;;26.46;28.52
25947;BME280;13745;51.470;9.894;2023-02-28T10:40:26;100701.66;;;28.65;28.20
25947;BME280;13745;51.470;9.894;2023-02-28T10:43:22;100687.50;;;30.15;27.49
25947;BME280;13745;51.470;9.894;2023-02-28T10:46:15;100681.00;;;30.31;27.07
25947;BME280;13745;51.470;9.894;2023-02-28T10:49:14;100681.31;;;31.88;25.97
25947;BME280;13745;51.470;9.894;2023-02-28T10:52:02;100678.81;;;33.13;24.96
25947;BME280;13745;51.470;9.894;2023-02-28T10:54:47;100678.75;;;34.14;24.08
25947;BME280;13745;51.470;9.894;2023-02-28T10:57:33;100674.63;;;34.97;23.57
25947;BME280;13745;51.470;9.894;2023-02-28T11:00:21;100684.41;;;35.55;23.11
25947;BME280;13745;51.470;9.894;2023-02-28T11:03:24;100664.06;;;36.23;23.55
25947;BME280;13745;51.470;9.894;2023-02-28T11:06:15;100673.56;;;37.07;22.67
25947;BME280;13745;51.470;9.894;2023-02-28T11:09:04;100668.69;;;37.79;21.91
25947;BME280;13745;51.470;9.894;2023-02-28T11:11:51;100669.66;;;38.36;21.85
25947;BME280;13745;51.470;9.894;2023-02-28T11:14:46;100664.56;;;38.98;21.73
25947;BME280;13745;51.470;9.894;2023-02-28T11:17:34;100668.47;;;39.51;20.88
25947;BME280;13745;51.470;9.894;2023-02-28T11:20:22;100656.94;;;39.80;20.90
25947;BME280;13745;51.470;9.894;2023-02-28T11:23:12;100659.06;;;40.01;20.78
25947;BME280;13745;51.470;9.894;2023-02-28T11:26:00;100662.47;;;40.49;20.29
25947;BME280;13745;51.470;9.894;2023-02-28T11:28:46;100654.19;;;40.95;19.80
25947;BME280;13745;51.470;9.894;2023-02-28T11:31:32;100653.94;;;41.49;20.28
25947;BME280;13745;51.470;9.894;2023-02-28T11:34:24;100645.22;;;41.90;20.47
25947;BME280;13745;51.470;9.894;2023-02-28T11:37:13;100654.97;;;42.20;19.53
25947;BME280;13745;51.470;9.894;2023-02-28T11:39:59;100655.84;;;42.70;19.10
25947;BME280;13745;51.470;9.894;2023-02-28T11:42:52;100644.78;;;43.06;19.51
25947;BME280;13745;51.470;9.894;2023-02-28T11:45:55;100645.00;;;43.11;19.65
25947;BME280;13745;51.470;9.894;2023-02-28T11:48:54;100643.47;;;43.02;19.96
25947;BME280;13745;51.470;9.894;2023-02-28T11:51:47;100648.06;;;42.67;19.55
25947;BME280;13745;51.470;9.894;2023-02-28T11:54:48;100642.84;;;42.72;19.74
25947;BME280;13745;51.470;9.894;2023-02-28T11:57:47;100636.41;;;42.30;19.12
25947;BME280;13745;51.470;9.894;2023-02-28T12:00:54;100638.31;;;41.94;19.29
25947;BME280;13745;51.470;9.894;2023-02-28T12:03:45;100636.88;;;41.76;19.16
25947;BME280;13745;51.470;9.894;2023-02-28T12:06:41;100628.38;;;41.20;19.62
25947;BME280;13745;51.470;9.894;2023-02-28T12:09:43;100634.13;;;40.96;19.76
25947;BME280;13745;51.470;9.894;2023-02-28T12:12:38;100632.59;;;40.41;19.22
25947;BME280;13745;51.470;9.894;2023-02-28T12:15:48;100623.22;;;40.21;19.83
25947;BME280;13745;51.470;9.894;2023-02-28T12:18:51;100616.28;;;39.95;19.79
25947;BME280;13745;51.470;9.894;2023-02-28T12:21:55;100617.19;;;39.56;20.16
25947;BME280;13745;51.470;9.894;2023-02-28T12:24:51;100618.91;;;39.49;19.88
25947;BME280;13745;51.470;9.894;2023-02-28T12:27:41;100612.38;;;39.36;19.87
25947;BME280;13745;51.470;9.894;2023-02-28T12:30:29;100609.97;;;38.93;19.41
25947;BME280;13745;51.470;9.894;2023-02-28T12:33:18;100602.19;;;38.82;19.29
25947;BME280;13745;51.470;9.894;2023-02-28T12:36:09;100604.41;;;38.62;19.62
25947;BME280;13745;51.470;9.894;2023-02-28T12:39:01;100603.75;;;38.28;19.65
25947;BME280;13745;51.470;9.894;2023-02-28T12:41:52;100594.75;;;38.03;19.92
25947;BME280;13745;51.470;9.894;2023-02-28T12:44:44;100592.31;;;37.67;20.05
25947;BME280;13745;51.470;9.894;2023-02-28T12:47:30;100591.63;;;36.89;21.61
25947;BME280;13745;51.470;9.894;2023-02-28T12:50:16;100586.69;;;37.52;20.54
25947;BME280;13745;51.470;9.894;2023-02-28T12:53:04;100584.31;;;37.49;20.00
25947;BME280;13745;51.470;9.894;2023-02-28T12:55:57;100589.56;;;37.51;19.98
25947;BME280;13745;51.470;9.894;2023-02-28T12:58:50;100593.41;;;37.40;19.72
25947;BME280;13745;51.470;9.894;2023-02-28T13:01:48;100578.16;;;37.31;19.94
25947;BME280;13745;51.470;9.894;2023-02-28T13:04:55;100576.56;;;37.20;19.71
25947;BME280;13745;51.470;9.894;2023-02-28T13:11:05;100571.09;;;36.78;20.16
25947;BME280;13745;51.470;9.894;2023-02-28T13:13:57;100574.91;;;36.23;20.60
25947;BME280;13745;51.470;9.894;2023-02-28T13:16:57;100570.06;;;35.73;20.67
25947;BME280;13745;51.470;9.894;2023-02-28T13:19:45;100573.59;;;35.74;20.32
25947;BME280;13745;51.470;9.894;2023-02-28T13:22:40;100572.22;;;35.52;20.64
25947;BME280;13745;51.470;9.894;2023-02-28T13:25:52;100575.03;;;34.96;20.92
25947;BME280;13745;51.470;9.894;2023-02-28T13:32:30;100566.06;;;33.71;22.02
25947;BME280;13745;51.470;9.894;2023-02-28T13:35:43;100571.69;;;33.58;21.93
25947;BME280;13745;51.470;9.894;2023-02-28T13:38:38;100564.22;;;33.81;21.21
25947;BME280;13745;51.470;9.894;2023-02-28T13:41:44;100557.16;;;33.20;21.88
25947;BME280;13745;51.470;9.894;2023-02-28T13:44:29;100553.50;;;33.31;21.05
25947;BME280;13745;51.470;9.894;2023-02-28T13:47:27;100555.88;;;32.84;21.35
25947;BME280;13745;51.470;9.894;2023-02-28T13:50:22;100551.84;;;32.69;21.73
25947;BME280;13745;51.470;9.894;2023-02-28T13:53:27;100554.56;;;32.16;22.28
25947;BME280;13745;51.470;9.894;2023-02-28T13:56:20;100542.91;;;32.27;21.31
25947;BME280;13745;51.470;9.894;2023-02-28T13:59:13;100539.44;;;31.51;22.05
25947;BME280;13745;51.470;9.894;2023-02-28T14:02:13;100536.72;;;29.69;22.29
25947;BME280;13745;51.470;9.894;2023-02-28T14:05:13;100539.94;;;28.10;23.39
25947;BME280;13745;51.470;9.894;2023-02-28T14:08:05;100535.66;;;26.41;23.87
25947;BME280;13745;51.470;9.894;2023-02-28T14:11:02;100541.91;;;25.32;25.06
25947;BME280;13745;51.470;9.894;2023-02-28T14:13:47;100537.28;;;24.19;25.81
25947;BME280;13745;51.470;9.894;2023-02-28T14:16:37;100539.53;;;23.18;25.80
25947;BME280;13745;51.470;9.894;2023-02-28T14:19:24;100545.22;;;22.51;26.10
25947;BME280;13745;51.470;9.894;2023-02-28T14:22:19;100531.25;;;22.68;26.02
25947;BME280;13745;51.470;9.894;2023-02-28T14:25:15;100536.84;;;21.10;26.86
25947;BME280;13745;51.470;9.894;2023-02-28T14:28:11;100547.41;;;20.10;27.26
25947;BME280;13745;51.470;9.894;2023-02-28T14:31:04;100545.13;;;19.45;27.87
25947;BME280;13745;51.470;9.894;2023-02-28T14:34:03;100551.63;;;18.73;28.49
25947;BME280;13745;51.470;9.894;2023-02-28T14:36:52;100546.84;;;18.22;28.76
25947;BME280;13745;51.470;9.894;2023-02-28T14:39:40;100541.81;;;17.00;28.67
25947;BME280;13745;51.470;9.894;2023-02-28T14:42:31;100541.88;;;16.97;29.24
25947;BME280;13745;51.470;9.894;2023-02-28T14:45:18;100551.94;;;16.73;29.52
25947;BME280;13745;51.470;9.894;2023-02-28T14:48:03;100546.78;;;16.19;28.89
25947;BME280;13745;51.470;9.894;2023-02-28T14:50:54;100539.91;;;16.62;28.46
25947;BME280;13745;51.470;9.894;2023-02-28T14:53:40;100541.13;;;17.32;28.83
25947;BME280;13745;51.470;9.894;2023-02-28T14:56:30;100539.97;;;17.03;29.25
25947;BME280;13745;51.470;9.894;2023-02-28T14:59:29;100539.16;;;17.01;29.23
25947;BME280;13745;51.470;9.894;2023-02-28T15:02:21;100539.00;;;16.63;29.59